Yreka, CA (96097)

5:15 AM PDT on May 26, 2015 (GMT -0700)
MesoWest | | Change Station
CLOSE
Current Station
Personal Weather Station
Location: Yreka, CA
Elevation: 2962 ft
Nearby Weather Stations

Elev 2962 ft 41.79 °N, 122.59 °W | Updated 59 minutes ago

Clear
Clear
49 °F
Feels Like 49 °F
N
2
Wind Variable Wind from NW
Gusts 6.0 mph

Today
High -- | Low -- °F
--% Chance of Precip.
Yesterday
High -- | Low -- °F
Precip. -- in
5:41 AM 8:33 PM
First Quarter, 57% visible
Pressure 29.98 in
Visibility 10.0 miles
Clouds Clear
Windchill 49 °F
Dew Point 35 °F
Humidity 57%
Rainfall in
Snow Depth Not available.
UV 0 out of 12
Pollen 7.40 out of 12
Air Quality Not available.
Flu Activity Sporadic
METAR KSIY 261153Z AUTO 05005KT 10SM CLR 08/03 A2999 RMK AO2 SLP152 T00780033 10144 20072 52001

More Conditions Fewer Conditions

Pressure 29.98 in
Visibility 10.0 miles
Clouds Clear
Windchill 49 °F
Dew Point 35 °F
Humidity 57%
Rainfall in
Snow Depth Not available.
UV 0 out of 12
Pollen 7.40 out of 12
Air Quality Not available.
Flu Activity Sporadic
METAR KSIY 261153Z AUTO 05005KT 10SM CLR 08/03 A2999 RMK AO2 SLP152 T00780033 10144 20072 52001

More Conditions Fewer Conditions

10-Day Weather Forecast

Almanac

Astronomy

May. 26, 2015 Rise Set
Actual Time
Civil Twilight
Nautical Twilight
Astronomical Twilight
Moon
Length of Visible Light
Length of Day
Tomorrow will be .
, % of the Moon is Illuminated

Today's Extremes

State Highs State Lows

Community

WunderPhotos

Upload Photos

1,824,324 photos uploaded!

WunderBlogs® & News

Nearby

Air Quality

  Air Quality AQ Index Pollutant
Not available.

Snow Depth

Station Depth Elevation

Earthquake Activity

City Distance Mag. Time & Date
Minimum magnitude displayed is 2.5.

Coastal Water Temperatures

Place Temperature

Stations

Nearby Weather Stations

Station Location Temp. Windchill Dew Point Humidity Wind Precip. Elev Updated Type